sensor_id;sensor_type;location;lat;lon;timestamp;temperature;humidity
69546;SHT31;56766;52.260;20.746;2023-01-08T00:01:15;5.81;90.20
69546;SHT31;56766;52.260;20.746;2023-01-08T00:03:48;5.81;90.19
69546;SHT31;56766;52.260;20.746;2023-01-08T00:06:18;5.78;90.19
69546;SHT31;56766;52.260;20.746;2023-01-08T00:08:46;5.78;90.24
69546;SHT31;56766;52.260;20.746;2023-01-08T00:11:14;5.77;90.25
69546;SHT31;56766;52.260;20.746;2023-01-08T00:13:41;5.78;90.26
69546;SHT31;56766;52.260;20.746;2023-01-08T00:16:11;5.78;90.27
69546;SHT31;56766;52.260;20.746;2023-01-08T00:18:40;5.78;90.26
69546;SHT31;56766;52.260;20.746;2023-01-08T00:21:34;5.77;90.19
69546;SHT31;56766;52.260;20.746;2023-01-08T00:24:00;5.75;90.21
69546;SHT31;56766;52.260;20.746;2023-01-08T00:26:27;5.76;90.24
69546;SHT31;56766;52.260;20.746;2023-01-08T00:28:54;5.76;90.28
69546;SHT31;56766;52.260;20.746;2023-01-08T00:31:20;5.78;90.22
69546;SHT31;56766;52.260;20.746;2023-01-08T00:33:51;5.78;90.14
69546;SHT31;56766;52.260;20.746;2023-01-08T00:36:18;5.74;90.13
69546;SHT31;56766;52.260;20.746;2023-01-08T00:38:46;5.75;90.15
69546;SHT31;56766;52.260;20.746;2023-01-08T00:41:14;5.73;90.06
69546;SHT31;56766;52.260;20.746;2023-01-08T00:43:42;5.70;90.00
69546;SHT31;56766;52.260;20.746;2023-01-08T00:46:09;5.71;90.00
69546;SHT31;56766;52.260;20.746;2023-01-08T00:48:36;5.69;89.92
69546;SHT31;56766;52.260;20.746;2023-01-08T00:51:07;5.64;89.90
69546;SHT31;56766;52.260;20.746;2023-01-08T00:53:35;5.59;89.87
69546;SHT31;56766;52.260;20.746;2023-01-08T00:56:06;5.54;89.86
69546;SHT31;56766;52.260;20.746;2023-01-08T00:58:35;5.48;89.83
69546;SHT31;56766;52.260;20.746;2023-01-08T01:01:09;5.45;89.90
69546;SHT31;56766;52.260;20.746;2023-01-08T01:03:40;5.41;89.85
69546;SHT31;56766;52.260;20.746;2023-01-08T01:06:07;5.36;89.80
69546;SHT31;56766;52.260;20.746;2023-01-08T01:08:37;5.34;89.80
69546;SHT31;56766;52.260;20.746;2023-01-08T01:11:09;5.28;89.74
69546;SHT31;56766;52.260;20.746;2023-01-08T01:13:38;5.23;89.75
69546;SHT31;56766;52.260;20.746;2023-01-08T01:16:05;5.18;89.76
69546;SHT31;56766;52.260;20.746;2023-01-08T01:18:32;5.15;89.79
69546;SHT31;56766;52.260;20.746;2023-01-08T01:20:59;5.12;89.80
69546;SHT31;56766;52.260;20.746;2023-01-08T01:23:25;5.10;89.80
69546;SHT31;56766;52.260;20.746;2023-01-08T01:25:52;5.08;89.79
69546;SHT31;56766;52.260;20.746;2023-01-08T01:28:20;5.06;89.80
69546;SHT31;56766;52.260;20.746;2023-01-08T01:30:57;5.06;89.78
69546;SHT31;56766;52.260;20.746;2023-01-08T01:33:23;5.03;89.80
69546;SHT31;56766;52.260;20.746;2023-01-08T01:36:01;5.00;89.80
69546;SHT31;56766;52.260;20.746;2023-01-08T01:38:29;4.98;89.78
69546;SHT31;56766;52.260;20.746;2023-01-08T01:40:56;4.89;89.70
69546;SHT31;56766;52.260;20.746;2023-01-08T01:43:42;4.84;89.72
69546;SHT31;56766;52.260;20.746;2023-01-08T01:46:34;4.79;89.74
69546;SHT31;56766;52.260;20.746;2023-01-08T01:49:13;4.76;89.79
69546;SHT31;56766;52.260;20.746;2023-01-08T01:51:49;4.76;89.80
69546;SHT31;56766;52.260;20.746;2023-01-08T01:54:21;4.74;89.76
69546;SHT31;56766;52.260;20.746;2023-01-08T01:56:50;4.72;89.73
69546;SHT31;56766;52.260;20.746;2023-01-08T01:59:17;4.69;89.80
69546;SHT31;56766;52.260;20.746;2023-01-08T02:01:44;4.70;89.89
69546;SHT31;56766;52.260;20.746;2023-01-08T02:04:12;4.70;89.86
69546;SHT31;56766;52.260;20.746;2023-01-08T02:06:59;4.65;89.77
69546;SHT31;56766;52.260;20.746;2023-01-08T02:09:51;4.59;89.76
69546;SHT31;56766;52.260;20.746;2023-01-08T02:12:53;4.54;89.79
69546;SHT31;56766;52.260;20.746;2023-01-08T02:15:50;4.50;89.85
69546;SHT31;56766;52.260;20.746;2023-01-08T02:18:56;4.49;89.90
69546;SHT31;56766;52.260;20.746;2023-01-08T02:21:57;4.51;89.87
69546;SHT31;56766;52.260;20.746;2023-01-08T02:27:29;4.49;89.97
69546;SHT31;56766;52.260;20.746;2023-01-08T02:30:03;4.49;90.04
69546;SHT31;56766;52.260;20.746;2023-01-08T02:32:39;4.49;90.10
69546;SHT31;56766;52.260;20.746;2023-01-08T02:35:10;4.50;90.16
69546;SHT31;56766;52.260;20.746;2023-01-08T02:37:39;4.52;90.20
69546;SHT31;56766;52.260;20.746;2023-01-08T02:40:14;4.53;90.24
69546;SHT31;56766;52.260;20.746;2023-01-08T02:43:17;4.50;90.31
69546;SHT31;56766;52.260;20.746;2023-01-08T02:45:56;4.51;90.40
69546;SHT31;56766;52.260;20.746;2023-01-08T02:51:56;4.54;90.41
69546;SHT31;56766;52.260;20.746;2023-01-08T02:54:28;4.56;90.44
69546;SHT31;56766;52.260;20.746;2023-01-08T02:57:09;4.61;90.43
69546;SHT31;56766;52.260;20.746;2023-01-08T02:59:41;4.65;90.40
69546;SHT31;56766;52.260;20.746;2023-01-08T03:02:12;4.67;90.34
69546;SHT31;56766;52.260;20.746;2023-01-08T03:04:48;4.68;90.30
69546;SHT31;56766;52.260;20.746;2023-01-08T03:07:22;4.70;90.30
69546;SHT31;56766;52.260;20.746;2023-01-08T03:09:49;4.73;90.23
69546;SHT31;56766;52.260;20.746;2023-01-08T03:12:23;4.72;90.20
69546;SHT31;56766;52.260;20.746;2023-01-08T03:15:06;4.72;90.19
69546;SHT31;56766;52.260;20.746;2023-01-08T03:17:45;4.71;90.20
69546;SHT31;56766;52.260;20.746;2023-01-08T03:20:19;4.71;90.20
69546;SHT31;56766;52.260;20.746;2023-01-08T03:22:53;4.73;90.20
69546;SHT31;56766;52.260;20.746;2023-01-08T03:25:26;4.77;90.20
69546;SHT31;56766;52.260;20.746;2023-01-08T03:28:02;4.81;90.17
69546;SHT31;56766;52.260;20.746;2023-01-08T03:30:37;4.84;90.07
69546;SHT31;56766;52.260;20.746;2023-01-08T03:33:10;4.83;90.01
69546;SHT31;56766;52.260;20.746;2023-01-08T03:35:42;4.78;89.92
69546;SHT31;56766;52.260;20.746;2023-01-08T03:38:25;4.73;89.92
69546;SHT31;56766;52.260;20.746;2023-01-08T03:41:02;4.71;89.91
69546;SHT31;56766;52.260;20.746;2023-01-08T03:43:35;4.68;89.90
69546;SHT31;56766;52.260;20.746;2023-01-08T03:46:08;4.62;89.80
69546;SHT31;56766;52.260;20.746;2023-01-08T03:48:42;4.57;89.82
69546;SHT31;56766;52.260;20.746;2023-01-08T03:51:10;4.52;89.83
69546;SHT31;56766;52.260;20.746;2023-01-08T03:53:37;4.50;89.90
69546;SHT31;56766;52.260;20.746;2023-01-08T03:56:04;4.48;89.90
69546;SHT31;56766;52.260;20.746;2023-01-08T03:58:31;4.47;89.86
69546;SHT31;56766;52.260;20.746;2023-01-08T04:00:58;4.45;89.80
69546;SHT31;56766;52.260;20.746;2023-01-08T04:03:24;4.42;89.70
69546;SHT31;56766;52.260;20.746;2023-01-08T04:05:51;4.38;89.75
69546;SHT31;56766;52.260;20.746;2023-01-08T04:08:18;4.35;89.80
69546;SHT31;56766;52.260;20.746;2023-01-08T04:10:44;4.34;89.82
69546;SHT31;56766;52.260;20.746;2023-01-08T04:13:11;4.35;89.82
69546;SHT31;56766;52.260;20.746;2023-01-08T04:15:37;4.35;89.80
69546;SHT31;56766;52.260;20.746;2023-01-08T04:18:04;4.35;89.75
69546;SHT31;56766;52.260;20.746;2023-01-08T04:20:31;4.36;89.80
69546;SHT31;56766;52.260;20.746;2023-01-08T04:22:57;4.34;89.73
69546;SHT31;56766;52.260;20.746;2023-01-08T04:25:24;4.31;89.71
69546;SHT31;56766;52.260;20.746;2023-01-08T04:27:51;4.28;89.72
69546;SHT31;56766;52.260;20.746;2023-01-08T04:30:17;4.27;89.70
69546;SHT31;56766;52.260;20.746;2023-01-08T04:32:44;4.25;89.70
69546;SHT31;56766;52.260;20.746;2023-01-08T04:35:11;4.22;89.71
69546;SHT31;56766;52.260;20.746;2023-01-08T04:37:37;4.20;89.75
69546;SHT31;56766;52.260;20.746;2023-01-08T04:40:05;4.18;89.80
69546;SHT31;56766;52.260;20.746;2023-01-08T04:42:32;4.16;89.80
69546;SHT31;56766;52.260;20.746;2023-01-08T04:44:58;4.15;89.80
69546;SHT31;56766;52.260;20.746;2023-01-08T04:47:25;4.14;89.81
69546;SHT31;56766;52.260;20.746;2023-01-08T04:49:52;4.10;89.82
69546;SHT31;56766;52.260;20.746;2023-01-08T04:52:18;4.10;89.84
69546;SHT31;56766;52.260;20.746;2023-01-08T04:54:45;4.10;89.90
69546;SHT31;56766;52.260;20.746;2023-01-08T04:57:12;4.09;89.90
69546;SHT31;56766;52.260;20.746;2023-01-08T04:59:38;4.09;89.91
69546;SHT31;56766;52.260;20.746;2023-01-08T05:02:05;4.09;89.90
69546;SHT31;56766;52.260;20.746;2023-01-08T05:04:32;4.07;89.88
69546;SHT31;56766;52.260;20.746;2023-01-08T05:06:58;4.05;89.86
69546;SHT31;56766;52.260;20.746;2023-01-08T05:09:25;4.03;89.88
69546;SHT31;56766;52.260;20.746;2023-01-08T05:11:52;4.04;89.97
69546;SHT31;56766;52.260;20.746;2023-01-08T05:14:18;4.04;89.96
69546;SHT31;56766;52.260;20.746;2023-01-08T05:16:45;4.06;89.99
69546;SHT31;56766;52.260;20.746;2023-01-08T05:19:12;4.08;89.98
69546;SHT31;56766;52.260;20.746;2023-01-08T05:21:39;4.12;89.93
69546;SHT31;56766;52.260;20.746;2023-01-08T05:24:06;4.12;89.91
69546;SHT31;56766;52.260;20.746;2023-01-08T05:26:34;4.13;89.90
69546;SHT31;56766;52.260;20.746;2023-01-08T05:29:01;4.12;89.93
69546;SHT31;56766;52.260;20.746;2023-01-08T05:31:28;4.10;89.94
69546;SHT31;56766;52.260;20.746;2023-01-08T05:33:57;4.09;89.98
69546;SHT31;56766;52.260;20.746;2023-01-08T05:36:24;4.09;90.00
69546;SHT31;56766;52.260;20.746;2023-01-08T05:38:51;4.11;89.99
69546;SHT31;56766;52.260;20.746;2023-01-08T05:41:18;4.12;89.97
69546;SHT31;56766;52.260;20.746;2023-01-08T05:43:44;4.11;89.94
69546;SHT31;56766;52.260;20.746;2023-01-08T05:46:11;4.13;90.00
69546;SHT31;56766;52.260;20.746;2023-01-08T05:48:38;4.16;89.94
69546;SHT31;56766;52.260;20.746;2023-01-08T05:51:04;4.18;89.98
69546;SHT31;56766;52.260;20.746;2023-01-08T05:53:31;4.19;89.90
69546;SHT31;56766;52.260;20.746;2023-01-08T05:56:04;4.20;89.90
69546;SHT31;56766;52.260;20.746;2023-01-08T05:58:33;4.20;89.87
69546;SHT31;56766;52.260;20.746;2023-01-08T06:01:13;4.21;89.85
69546;SHT31;56766;52.260;20.746;2023-01-08T06:03:42;4.22;89.80
69546;SHT31;56766;52.260;20.746;2023-01-08T06:06:11;4.24;89.82
69546;SHT31;56766;52.260;20.746;2023-01-08T06:08:38;4.26;89.80
69546;SHT31;56766;52.260;20.746;2023-01-08T06:11:09;4.28;89.70
69546;SHT31;56766;52.260;20.746;2023-01-08T06:13:41;4.29;89.70
69546;SHT31;56766;52.260;20.746;2023-01-08T06:16:12;4.30;89.67
69546;SHT31;56766;52.260;20.746;2023-01-08T06:18:39;4.31;89.60
69546;SHT31;56766;52.260;20.746;2023-01-08T06:21:05;4.29;89.55
69546;SHT31;56766;52.260;20.746;2023-01-08T06:23:32;4.29;89.60
69546;SHT31;56766;52.260;20.746;2023-01-08T06:26:01;4.30;89.58
69546;SHT31;56766;52.260;20.746;2023-01-08T06:28:30;4.32;89.54
69546;SHT31;56766;52.260;20.746;2023-01-08T06:30:58;4.32;89.46
69546;SHT31;56766;52.260;20.746;2023-01-08T06:33:26;4.34;89.38
69546;SHT31;56766;52.260;20.746;2023-01-08T06:35:53;4.35;89.30
69546;SHT31;56766;52.260;20.746;2023-01-08T06:38:20;4.35;89.15
69546;SHT31;56766;52.260;20.746;2023-01-08T06:40:47;4.32;89.09
69546;SHT31;56766;52.260;20.746;2023-01-08T06:43:14;4.33;89.10
69546;SHT31;56766;52.260;20.746;2023-01-08T06:45:40;4.33;89.04
69546;SHT31;56766;52.260;20.746;2023-01-08T06:48:07;4.30;88.95
69546;SHT31;56766;52.260;20.746;2023-01-08T06:50:34;4.28;88.99
69546;SHT31;56766;52.260;20.746;2023-01-08T06:53:01;4.27;89.01
69546;SHT31;56766;52.260;20.746;2023-01-08T06:55:27;4.24;89.01
69546;SHT31;56766;52.260;20.746;2023-01-08T06:57:55;4.21;88.98
69546;SHT31;56766;52.260;20.746;2023-01-08T07:00:25;4.16;89.00
69546;SHT31;56766;52.260;20.746;2023-01-08T07:02:53;4.15;89.07
69546;SHT31;56766;52.260;20.746;2023-01-08T07:05:22;4.16;89.09
69546;SHT31;56766;52.260;20.746;2023-01-08T07:07:49;4.16;89.01
69546;SHT31;56766;52.260;20.746;2023-01-08T07:10:16;4.16;89.00
69546;SHT31;56766;52.260;20.746;2023-01-08T07:12:43;4.16;89.00
69546;SHT31;56766;52.260;20.746;2023-01-08T07:15:10;4.16;88.92
69546;SHT31;56766;52.260;20.746;2023-01-08T07:17:36;4.18;88.94
69546;SHT31;56766;52.260;20.746;2023-01-08T07:20:04;4.20;88.88
69546;SHT31;56766;52.260;20.746;2023-01-08T07:22:31;4.20;88.80
69546;SHT31;56766;52.260;20.746;2023-01-08T07:24:58;4.19;88.83
69546;SHT31;56766;52.260;20.746;2023-01-08T07:27:25;4.17;88.70
69546;SHT31;56766;52.260;20.746;2023-01-08T07:29:52;4.14;88.78
69546;SHT31;56766;52.260;20.746;2023-01-08T07:32:21;4.16;88.87
69546;SHT31;56766;52.260;20.746;2023-01-08T07:34:48;4.18;88.80
69546;SHT31;56766;52.260;20.746;2023-01-08T07:37:15;4.19;88.77
69546;SHT31;56766;52.260;20.746;2023-01-08T07:39:41;4.18;88.72
69546;SHT31;56766;52.260;20.746;2023-01-08T07:42:08;4.20;88.72
69546;SHT31;56766;52.260;20.746;2023-01-08T07:44:35;4.17;88.63
69546;SHT31;56766;52.260;20.746;2023-01-08T07:47:01;4.17;88.66
69546;SHT31;56766;52.260;20.746;2023-01-08T07:49:28;4.16;88.60
69546;SHT31;56766;52.260;20.746;2023-01-08T07:51:55;4.14;88.58
69546;SHT31;56766;52.260;20.746;2023-01-08T07:54:21;4.15;88.60
69546;SHT31;56766;52.260;20.746;2023-01-08T07:56:48;4.15;88.56
69546;SHT31;56766;52.260;20.746;2023-01-08T07:59:15;4.18;88.61
69546;SHT31;56766;52.260;20.746;2023-01-08T08:01:41;4.20;88.55
69546;SHT31;56766;52.260;20.746;2023-01-08T08:04:08;4.20;88.47
69546;SHT31;56766;52.260;20.746;2023-01-08T08:06:35;4.21;88.48
69546;SHT31;56766;52.260;20.746;2023-01-08T08:09:01;4.23;88.42
69546;SHT31;56766;52.260;20.746;2023-01-08T08:11:29;4.22;88.26
69546;SHT31;56766;52.260;20.746;2023-01-08T08:13:55;4.24;88.24
69546;SHT31;56766;52.260;20.746;2023-01-08T08:16:22;4.22;88.22
69546;SHT31;56766;52.260;20.746;2023-01-08T08:18:49;4.24;88.28
69546;SHT31;56766;52.260;20.746;2023-01-08T08:21:15;4.24;88.20
69546;SHT31;56766;52.260;20.746;2023-01-08T08:23:42;4.24;88.20
69546;SHT31;56766;52.260;20.746;2023-01-08T08:26:09;4.24;88.20
69546;SHT31;56766;52.260;20.746;2023-01-08T08:28:35;4.25;88.27
69546;SHT31;56766;52.260;20.746;2023-01-08T08:31:02;4.25;88.19
69546;SHT31;56766;52.260;20.746;2023-01-08T08:33:29;4.24;88.15
69546;SHT31;56766;52.260;20.746;2023-01-08T08:35:55;4.28;88.14
69546;SHT31;56766;52.260;20.746;2023-01-08T08:38:22;4.29;88.03
69546;SHT31;56766;52.260;20.746;2023-01-08T08:40:50;4.27;87.97
69546;SHT31;56766;52.260;20.746;2023-01-08T08:43:17;4.27;88.01
69546;SHT31;56766;52.260;20.746;2023-01-08T08:45:44;4.27;87.99
69546;SHT31;56766;52.260;20.746;2023-01-08T08:48:11;4.26;88.03
69546;SHT31;56766;52.260;20.746;2023-01-08T08:50:38;4.27;88.10
69546;SHT31;56766;52.260;20.746;2023-01-08T08:53:06;4.29;88.00
69546;SHT31;56766;52.260;20.746;2023-01-08T08:55:33;4.31;88.01
69546;SHT31;56766;52.260;20.746;2023-01-08T08:58:10;4.34;88.00
69546;SHT31;56766;52.260;20.746;2023-01-08T09:00:41;4.35;87.96
69546;SHT31;56766;52.260;20.746;2023-01-08T09:03:13;4.34;87.91
69546;SHT31;56766;52.260;20.746;2023-01-08T09:05:42;4.34;88.02
69546;SHT31;56766;52.260;20.746;2023-01-08T09:08:11;4.36;88.02
69546;SHT31;56766;52.260;20.746;2023-01-08T09:10:39;4.36;88.01
69546;SHT31;56766;52.260;20.746;2023-01-08T09:13:07;4.38;87.94
69546;SHT31;56766;52.260;20.746;2023-01-08T09:15:36;4.39;87.93
69546;SHT31;56766;52.260;20.746;2023-01-08T09:18:04;4.41;87.92
69546;SHT31;56766;52.260;20.746;2023-01-08T09:20:32;4.40;87.84
69546;SHT31;56766;52.260;20.746;2023-01-08T09:23:00;4.43;87.87
69546;SHT31;56766;52.260;20.746;2023-01-08T09:25:29;4.47;87.75
69546;SHT31;56766;52.260;20.746;2023-01-08T09:28:05;4.51;87.74
69546;SHT31;56766;52.260;20.746;2023-01-08T09:30:35;4.53;87.60
69546;SHT31;56766;52.260;20.746;2023-01-08T09:33:03;4.55;87.54
69546;SHT31;56766;52.260;20.746;2023-01-08T09:35:32;4.56;87.45
69546;SHT31;56766;52.260;20.746;2023-01-08T09:37:59;4.57;87.47
69546;SHT31;56766;52.260;20.746;2023-01-08T09:40:41;4.57;87.41
69546;SHT31;56766;52.260;20.746;2023-01-08T09:43:17;4.58;87.39
69546;SHT31;56766;52.260;20.746;2023-01-08T09:45:51;4.59;87.35
69546;SHT31;56766;52.260;20.746;2023-01-08T09:48:26;4.58;87.24
69546;SHT31;56766;52.260;20.746;2023-01-08T09:50:56;4.58;87.37
69546;SHT31;56766;52.260;20.746;2023-01-08T09:53:24;4.61;87.41
69546;SHT31;56766;52.260;20.746;2023-01-08T09:55:59;4.61;87.40
69546;SHT31;56766;52.260;20.746;2023-01-08T09:58:44;4.62;87.38
69546;SHT31;56766;52.260;20.746;2023-01-08T10:01:20;4.68;87.48
69546;SHT31;56766;52.260;20.746;2023-01-08T10:09:48;4.87;87.39
69546;SHT31;56766;52.260;20.746;2023-01-08T10:12:26;4.91;87.41
69546;SHT31;56766;52.260;20.746;2023-01-08T10:15:05;4.94;87.14
69546;SHT31;56766;52.260;20.746;2023-01-08T10:20:15;5.01;87.05
69546;SHT31;56766;52.260;20.746;2023-01-08T10:22:48;5.06;86.96
69546;SHT31;56766;52.260;20.746;2023-01-08T10:25:25;5.08;86.81
69546;SHT31;56766;52.260;20.746;2023-01-08T10:33:02;5.04;86.51
69546;SHT31;56766;52.260;20.746;2023-01-08T10:35:38;5.03;86.41
69546;SHT31;56766;52.260;20.746;2023-01-08T10:38:20;5.06;86.46
69546;SHT31;56766;52.260;20.746;2023-01-08T10:40:51;5.10;86.34
69546;SHT31;56766;52.260;20.746;2023-01-08T10:44:13;5.18;86.41
69546;SHT31;56766;52.260;20.746;2023-01-08T10:46:43;5.30;86.25
69546;SHT31;56766;52.260;20.746;2023-01-08T10:52:33;5.45;85.73
69546;SHT31;56766;52.260;20.746;2023-01-08T10:55:27;5.51;85.56
69546;SHT31;56766;52.260;20.746;2023-01-08T11:00:35;5.54;85.30
69546;SHT31;56766;52.260;20.746;2023-01-08T11:03:06;5.50;84.99
69546;SHT31;56766;52.260;20.746;2023-01-08T11:05:41;5.44;84.86
69546;SHT31;56766;52.260;20.746;2023-01-08T11:08:17;5.43;85.09
69546;SHT31;56766;52.260;20.746;2023-01-08T11:10:59;5.40;85.17
69546;SHT31;56766;52.260;20.746;2023-01-08T11:13:28;5.40;85.07
69546;SHT31;56766;52.260;20.746;2023-01-08T11:16:03;5.37;84.91
69546;SHT31;56766;52.260;20.746;2023-01-08T11:18:46;5.34;84.70
69546;SHT31;56766;52.260;20.746;2023-01-08T11:21:24;5.32;84.80
69546;SHT31;56766;52.260;20.746;2023-01-08T11:24:18;5.32;84.63
69546;SHT31;56766;52.260;20.746;2023-01-08T11:29:49;5.29;84.56
69546;SHT31;56766;52.260;20.746;2023-01-08T11:35:14;5.26;84.41
69546;SHT31;56766;52.260;20.746;2023-01-08T11:37:52;5.24;84.39
69546;SHT31;56766;52.260;20.746;2023-01-08T11:46:17;5.13;84.20
69546;SHT31;56766;52.260;20.746;2023-01-08T11:52:12;5.15;84.36
69546;SHT31;56766;52.260;20.746;2023-01-08T12:00:57;5.12;84.15
69546;SHT31;56766;52.260;20.746;2023-01-08T12:03:46;5.09;84.05
69546;SHT31;56766;52.260;20.746;2023-01-08T12:06:33;5.05;83.94
69546;SHT31;56766;52.260;20.746;2023-01-08T12:12:54;5.02;83.96
69546;SHT31;56766;52.260;20.746;2023-01-08T12:15:50;5.02;83.93
69546;SHT31;56766;52.260;20.746;2023-01-08T12:18:51;4.99;83.75
69546;SHT31;56766;52.260;20.746;2023-01-08T12:28:13;4.84;83.80
69546;SHT31;56766;52.260;20.746;2023-01-08T12:34:10;4.78;83.84
69546;SHT31;56766;52.260;20.746;2023-01-08T12:36:54;4.80;83.88
69546;SHT31;56766;52.260;20.746;2023-01-08T12:39:47;4.81;84.02
69546;SHT31;56766;52.260;20.746;2023-01-08T12:42:27;4.84;84.01
69546;SHT31;56766;52.260;20.746;2023-01-08T12:44:59;4.80;83.91
69546;SHT31;56766;52.260;20.746;2023-01-08T12:47:34;4.78;83.93
69546;SHT31;56766;52.260;20.746;2023-01-08T12:50:20;4.76;83.95
69546;SHT31;56766;52.260;20.746;2023-01-08T12:59:08;4.63;83.96
69546;SHT31;56766;52.260;20.746;2023-01-08T13:04:52;4.66;83.98
69546;SHT31;56766;52.260;20.746;2023-01-08T13:07:28;4.65;83.95
69546;SHT31;56766;52.260;20.746;2023-01-08T13:10:19;4.61;83.94
69546;SHT31;56766;52.260;20.746;2023-01-08T13:12:54;4.56;83.88
69546;SHT31;56766;52.260;20.746;2023-01-08T13:15:25;4.52;84.00
69546;SHT31;56766;52.260;20.746;2023-01-08T13:17:57;4.50;83.93
69546;SHT31;56766;52.260;20.746;2023-01-08T13:20:57;4.47;83.99
69546;SHT31;56766;52.260;20.746;2023-01-08T13:23:29;4.44;84.07
69546;SHT31;56766;52.260;20.746;2023-01-08T13:26:03;4.43;84.26
69546;SHT31;56766;52.260;20.746;2023-01-08T13:28:43;4.44;84.26
69546;SHT31;56766;52.260;20.746;2023-01-08T13:33:48;4.39;84.33
69546;SHT31;56766;52.260;20.746;2023-01-08T13:39:03;4.35;84.37
69546;SHT31;56766;52.260;20.746;2023-01-08T13:41:43;4.36;84.30
69546;SHT31;56766;52.260;20.746;2023-01-08T13:44:27;4.32;84.36
69546;SHT31;56766;52.260;20.746;2023-01-08T13:47:06;4.29;84.39
69546;SHT31;56766;52.260;20.746;2023-01-08T13:49:49;4.27;84.47
69546;SHT31;56766;52.260;20.746;2023-01-08T13:52:45;4.25;84.57
69546;SHT31;56766;52.260;20.746;2023-01-08T13:55:36;4.26;84.66
69546;SHT31;56766;52.260;20.746;2023-01-08T13:58:16;4.24;84.69
69546;SHT31;56766;52.260;20.746;2023-01-08T14:00:49;4.23;84.80
69546;SHT31;56766;52.260;20.746;2023-01-08T14:03:28;4.22;84.84
69546;SHT31;56766;52.260;20.746;2023-01-08T14:06:25;4.22;84.92
69546;SHT31;56766;52.260;20.746;2023-01-08T14:08:58;4.23;84.99
69546;SHT31;56766;52.260;20.746;2023-01-08T14:11:42;4.24;85.00
69546;SHT31;56766;52.260;20.746;2023-01-08T14:14:14;4.23;84.90
69546;SHT31;56766;52.260;20.746;2023-01-08T14:16:45;4.20;84.90
69546;SHT31;56766;52.260;20.746;2023-01-08T14:19:17;4.20;84.97
69546;SHT31;56766;52.260;20.746;2023-01-08T14:21:51;4.19;84.95
69546;SHT31;56766;52.260;20.746;2023-01-08T14:24:23;4.18;84.96
69546;SHT31;56766;52.260;20.746;2023-01-08T14:26:57;4.17;85.05
69546;SHT31;56766;52.260;20.746;2023-01-08T14:29:29;4.15;85.10
69546;SHT31;56766;52.260;20.746;2023-01-08T14:31:59;4.13;85.11
69546;SHT31;56766;52.260;20.746;2023-01-08T14:34:29;4.12;85.15
69546;SHT31;56766;52.260;20.746;2023-01-08T14:36:57;4.12;85.13
69546;SHT31;56766;52.260;20.746;2023-01-08T14:39:32;4.10;85.13
69546;SHT31;56766;52.260;20.746;2023-01-08T14:47:49;4.05;85.43
69546;SHT31;56766;52.260;20.746;2023-01-08T14:50:35;4.04;85.50
69546;SHT31;56766;52.260;20.746;2023-01-08T14:55:51;4.00;85.52
69546;SHT31;56766;52.260;20.746;2023-01-08T14:58:32;3.97;85.67
69546;SHT31;56766;52.260;20.746;2023-01-08T15:01:28;3.98;85.66
69546;SHT31;56766;52.260;20.746;2023-01-08T15:04:07;3.99;85.70
69546;SHT31;56766;52.260;20.746;2023-01-08T15:06:42;4.00;85.72
69546;SHT31;56766;52.260;20.746;2023-01-08T15:09:33;4.00;85.70
69546;SHT31;56766;52.260;20.746;2023-01-08T15:12:04;3.99;85.72
69546;SHT31;56766;52.260;20.746;2023-01-08T15:14:33;3.98;85.72
69546;SHT31;56766;52.260;20.746;2023-01-08T15:17:15;3.97;85.74
69546;SHT31;56766;52.260;20.746;2023-01-08T15:19:56;3.98;85.81
69546;SHT31;56766;52.260;20.746;2023-01-08T15:22:27;4.00;85.78
69546;SHT31;56766;52.260;20.746;2023-01-08T15:24:59;4.01;85.83
69546;SHT31;56766;52.260;20.746;2023-01-08T15:27:29;4.02;85.75
69546;SHT31;56766;52.260;20.746;2023-01-08T15:30:06;4.03;85.71
69546;SHT31;56766;52.260;20.746;2023-01-08T15:32:49;4.04;85.70
69546;SHT31;56766;52.260;20.746;2023-01-08T15:35:17;4.05;85.70
69546;SHT31;56766;52.260;20.746;2023-01-08T15:37:44;4.07;85.65
69546;SHT31;56766;52.260;20.746;2023-01-08T15:40:11;4.06;85.60
69546;SHT31;56766;52.260;20.746;2023-01-08T15:42:38;4.05;85.60
69546;SHT31;56766;52.260;20.746;2023-01-08T15:45:29;4.04;85.60
69546;SHT31;56766;52.260;20.746;2023-01-08T15:47:59;4.04;85.59
69546;SHT31;56766;52.260;20.746;2023-01-08T15:50:28;4.03;85.53
69546;SHT31;56766;52.260;20.746;2023-01-08T15:52:55;4.02;85.59
69546;SHT31;56766;52.260;20.746;2023-01-08T15:55:24;4.01;85.59
69546;SHT31;56766;52.260;20.746;2023-01-08T15:57:50;4.00;85.54
69546;SHT31;56766;52.260;20.746;2023-01-08T16:00:18;3.99;85.54
69546;SHT31;56766;52.260;20.746;2023-01-08T16:02:50;3.98;85.51
69546;SHT31;56766;52.260;20.746;2023-01-08T16:05:22;3.96;85.51
69546;SHT31;56766;52.260;20.746;2023-01-08T16:07:49;3.95;85.59
69546;SHT31;56766;52.260;20.746;2023-01-08T16:10:17;3.97;85.53
69546;SHT31;56766;52.260;20.746;2023-01-08T16:12:44;3.97;85.49
69546;SHT31;56766;52.260;20.746;2023-01-08T16:15:12;3.95;85.50
69546;SHT31;56766;52.260;20.746;2023-01-08T16:17:43;3.95;85.56
69546;SHT31;56766;52.260;20.746;2023-01-08T16:20:12;3.94;85.52
69546;SHT31;56766;52.260;20.746;2023-01-08T16:22:42;3.93;85.50
69546;SHT31;56766;52.260;20.746;2023-01-08T16:25:12;3.94;85.50
69546;SHT31;56766;52.260;20.746;2023-01-08T16:27:39;3.92;85.50
69546;SHT31;56766;52.260;20.746;2023-01-08T16:30:12;3.91;85.42
69546;SHT31;56766;52.260;20.746;2023-01-08T16:32:41;3.91;85.49
69546;SHT31;56766;52.260;20.746;2023-01-08T16:35:09;3.91;85.41
69546;SHT31;56766;52.260;20.746;2023-01-08T16:37:38;3.91;85.39
69546;SHT31;56766;52.260;20.746;2023-01-08T16:40:05;3.91;85.40
69546;SHT31;56766;52.260;20.746;2023-01-08T16:42:33;3.94;85.40
69546;SHT31;56766;52.260;20.746;2023-01-08T16:45:00;3.95;85.33
69546;SHT31;56766;52.260;20.746;2023-01-08T16:47:27;3.95;85.37
69546;SHT31;56766;52.260;20.746;2023-01-08T16:49:55;3.94;85.32
69546;SHT31;56766;52.260;20.746;2023-01-08T16:52:22;3.95;85.31
69546;SHT31;56766;52.260;20.746;2023-01-08T16:54:49;3.97;85.26
69546;SHT31;56766;52.260;20.746;2023-01-08T16:57:15;4.00;85.23
69546;SHT31;56766;52.260;20.746;2023-01-08T16:59:42;3.99;85.17
69546;SHT31;56766;52.260;20.746;2023-01-08T17:02:09;3.97;85.15
69546;SHT31;56766;52.260;20.746;2023-01-08T17:04:36;3.97;85.11
69546;SHT31;56766;52.260;20.746;2023-01-08T17:07:04;3.95;85.10
69546;SHT31;56766;52.260;20.746;2023-01-08T17:09:33;3.94;85.16
69546;SHT31;56766;52.260;20.746;2023-01-08T17:12:00;3.94;85.18
69546;SHT31;56766;52.260;20.746;2023-01-08T17:14:27;3.92;85.13
69546;SHT31;56766;52.260;20.746;2023-01-08T17:16:54;3.90;85.16
69546;SHT31;56766;52.260;20.746;2023-01-08T17:19:21;3.89;85.20
69546;SHT31;56766;52.260;20.746;2023-01-08T17:21:49;3.89;85.24
69546;SHT31;56766;52.260;20.746;2023-01-08T17:24:16;3.90;85.27